createdAt,value
2019-02-16T00:00:45.233Z,13.28
2019-02-16T00:03:16.082Z,12.67
2019-02-16T00:05:45.281Z,11.60
2019-02-16T00:08:14.560Z,12.15
2019-02-16T00:10:43.960Z,12.73
2019-02-16T00:13:13.159Z,12.78
2019-02-16T00:15:42.411Z,11.48
2019-02-16T00:18:11.617Z,13.85
2019-02-16T00:20:40.825Z,13.45
2019-02-16T00:23:10.198Z,14.40
2019-02-16T00:25:39.479Z,15.38
2019-02-16T00:28:08.921Z,18.00
2019-02-16T00:30:38.176Z,14.83
2019-02-16T00:33:07.378Z,15.80
2019-02-16T00:35:36.927Z,15.72
2019-02-16T00:38:06.117Z,17.00
2019-02-16T00:40:35.369Z,16.32
2019-02-16T00:43:04.575Z,16.87
2019-02-16T00:45:33.897Z,18.45
2019-02-16T00:48:04.225Z,16.37
2019-02-16T00:50:33.492Z,17.42
2019-02-16T00:53:02.753Z,22.85
2019-02-16T00:55:32.114Z,18.73
2019-02-16T00:58:01.327Z,15.95
2019-02-16T01:00:30.595Z,17.48
2019-02-16T01:02:59.865Z,17.12
2019-02-16T01:05:29.121Z,18.52
2019-02-16T01:07:58.363Z,16.65
2019-02-16T01:10:27.630Z,17.85
2019-02-16T01:12:57.184Z,16.52
2019-02-16T01:15:26.443Z,17.60
2019-02-16T01:17:55.643Z,15.88
2019-02-16T01:20:24.895Z,15.60
2019-02-16T01:22:54.111Z,15.05
2019-02-16T01:25:23.381Z,14.70
2019-02-16T01:27:52.618Z,17.82
2019-02-16T01:30:21.872Z,16.10
2019-02-16T01:32:51.234Z,15.53
2019-02-16T01:35:20.531Z,14.60
2019-02-16T01:37:50.055Z,14.18
2019-02-16T01:40:19.254Z,15.58
2019-02-16T01:42:49.474Z,14.60
2019-02-16T01:45:19.027Z,14.90
2019-02-16T01:47:48.308Z,21.30
2019-02-16T01:50:17.530Z,19.30
2019-02-16T01:52:46.773Z,17.48
2019-02-16T01:55:16.097Z,15.23
2019-02-16T01:57:45.533Z,17.12
2019-02-16T02:00:14.912Z,14.63
2019-02-16T02:02:44.157Z,17.92
2019-02-16T02:05:13.506Z,15.70
2019-02-16T02:07:42.791Z,14.43
2019-02-16T02:10:12.199Z,15.03
2019-02-16T02:12:41.509Z,15.03
2019-02-16T02:15:11.051Z,16.05
2019-02-16T02:17:40.376Z,16.23
2019-02-16T02:20:09.582Z,16.87
2019-02-16T02:22:38.903Z,20.00
2019-02-16T02:25:10.073Z,21.60
2019-02-16T02:27:39.396Z,15.13
2019-02-16T02:30:10.530Z,15.50
2019-02-16T02:32:39.894Z,17.30
2019-02-16T02:35:10.067Z,14.83
2019-02-16T02:37:39.325Z,17.05
2019-02-16T02:40:08.565Z,16.34
2019-02-16T02:42:37.853Z,15.95
2019-02-16T02:45:09.865Z,14.90
2019-02-16T02:47:39.160Z,14.23
2019-02-16T02:50:08.405Z,16.96
2019-02-16T02:52:38.630Z,14.70
2019-02-16T02:55:08.213Z,14.15
2019-02-16T02:57:37.610Z,13.75
2019-02-16T03:00:09.418Z,13.72
2019-02-16T03:02:38.771Z,17.67
2019-02-16T03:05:10.421Z,16.20
2019-02-16T03:07:39.897Z,20.95
2019-02-16T03:10:09.120Z,14.28
2019-02-16T03:12:38.382Z,15.65
2019-02-16T03:15:07.827Z,16.52
2019-02-16T03:17:37.157Z,14.90
2019-02-16T03:20:07.381Z,14.70
2019-02-16T03:23:14.252Z,15.38
2019-02-16T03:25:49.181Z,14.33
2019-02-16T03:28:38.528Z,14.73
2019-02-16T03:31:27.792Z,13.95
2019-02-16T03:34:04.161Z,14.63
2019-02-16T03:36:42.406Z,13.30
2019-02-16T03:39:14.064Z,12.20
2019-02-16T03:41:43.353Z,13.80
2019-02-16T03:44:12.628Z,12.68
2019-02-16T03:46:41.840Z,13.88
2019-02-16T03:49:11.115Z,15.03
2019-02-16T03:51:40.312Z,16.75
2019-02-16T03:54:09.550Z,16.07
2019-02-16T03:56:38.744Z,18.35
2019-02-16T03:59:08.006Z,16.37
2019-02-16T04:01:37.206Z,14.70
2019-02-16T04:04:06.440Z,14.13
2019-02-16T04:06:35.630Z,15.08
2019-02-16T04:09:06.270Z,16.82
2019-02-16T04:11:35.471Z,14.70
2019-02-16T04:14:04.735Z,14.53
2019-02-16T04:16:33.976Z,13.62
2019-02-16T04:19:04.198Z,12.58
2019-02-16T04:21:33.505Z,13.28
2019-02-16T04:24:04.306Z,14.32
2019-02-16T04:26:33.794Z,13.90
2019-02-16T04:29:02.989Z,15.70
2019-02-16T04:31:32.225Z,15.45
2019-02-16T04:34:01.424Z,14.70
2019-02-16T04:36:30.670Z,15.50
2019-02-16T04:38:59.920Z,14.13
2019-02-16T04:41:29.114Z,15.03
2019-02-16T04:43:58.362Z,14.55
2019-02-16T04:46:27.594Z,13.50
2019-02-16T04:48:56.893Z,14.83
2019-02-16T04:51:26.106Z,17.45
2019-02-16T04:53:55.321Z,17.85
2019-02-16T04:56:24.660Z,18.45
2019-02-16T04:58:53.891Z,18.35
2019-02-16T05:01:23.130Z,17.77
2019-02-16T05:03:52.387Z,20.55
2019-02-16T05:06:21.592Z,17.65
2019-02-16T05:08:50.889Z,15.05
2019-02-16T05:11:20.097Z,16.57
2019-02-16T05:13:49.464Z,21.12
2019-02-16T05:16:18.682Z,17.85
2019-02-16T05:18:47.923Z,18.80
2019-02-16T05:21:17.117Z,14.83
2019-02-16T05:23:46.313Z,21.30
2019-02-16T05:26:15.572Z,15.53
2019-02-16T05:28:44.840Z,13.80
2019-02-16T05:31:14.036Z,15.75
2019-02-16T05:33:43.277Z,12.30
2019-02-16T05:36:12.586Z,13.78
2019-02-16T05:38:41.804Z,14.13
2019-02-16T05:41:11.469Z,13.08
2019-02-16T05:43:40.834Z,15.90
2019-02-16T05:46:10.046Z,13.00
2019-02-16T05:48:39.262Z,14.18
2019-02-16T05:51:08.545Z,13.58
2019-02-16T05:53:37.738Z,11.83
2019-02-16T05:56:06.936Z,12.95
2019-02-16T05:58:36.188Z,13.98
2019-02-16T06:01:05.423Z,13.05
2019-02-16T06:03:35.584Z,13.32
2019-02-16T06:06:04.785Z,13.55
2019-02-16T06:08:34.047Z,13.90
2019-02-16T06:11:05.876Z,14.65
2019-02-16T06:13:35.340Z,13.58
2019-02-16T06:16:04.606Z,16.35
2019-02-16T06:18:33.875Z,15.70
2019-02-16T06:21:03.081Z,12.78
2019-02-16T06:23:32.430Z,13.28
2019-02-16T06:26:01.649Z,14.13
2019-02-16T06:28:30.938Z,11.88
2019-02-16T06:31:00.199Z,13.70
2019-02-16T06:33:29.402Z,12.05
2019-02-16T06:36:01.261Z,12.00
2019-02-16T06:38:30.513Z,25.97
2019-02-16T06:40:59.730Z,16.67
2019-02-16T06:43:29.003Z,13.10
2019-02-16T06:45:58.246Z,18.25
2019-02-16T06:48:27.444Z,18.42
2019-02-16T06:50:56.655Z,19.77
2019-02-16T06:53:25.901Z,19.00
2019-02-16T06:55:56.980Z,20.55
2019-02-16T06:58:26.205Z,19.37
2019-02-16T07:00:55.455Z,20.75
2019-02-16T07:03:24.713Z,23.02
2019-02-16T07:05:53.921Z,17.85
2019-02-16T07:08:23.183Z,21.73
2019-02-16T07:10:52.367Z,23.95
2019-02-16T07:13:21.572Z,20.62
2019-02-16T07:16:08.581Z,19.10
2019-02-16T07:18:39.465Z,18.05
2019-02-16T07:21:09.434Z,17.28
2019-02-16T07:23:38.806Z,17.42
2019-02-16T07:26:08.070Z,22.40
2019-02-16T07:28:37.326Z,19.20
2019-02-16T07:31:06.602Z,19.07
2019-02-16T07:33:35.808Z,23.00
2019-02-16T07:36:05.061Z,23.22
2019-02-16T07:38:34.301Z,18.65
2019-02-16T07:41:04.156Z,21.68
2019-02-16T07:43:38.028Z,17.85
2019-02-16T07:46:08.873Z,18.32
2019-02-16T07:48:39.754Z,14.83
2019-02-16T07:51:10.595Z,19.76
2019-02-16T07:53:56.781Z,18.75
2019-02-16T07:56:30.288Z,17.57
2019-02-16T07:59:10.239Z,16.32
2019-02-16T08:01:50.147Z,10.32
2019-02-16T08:04:29.927Z,9.90
2019-02-16T08:07:00.878Z,8.80
2019-02-16T08:09:46.840Z,6.20
2019-02-16T08:12:17.687Z,6.17
2019-02-16T08:14:51.515Z,5.72
2019-02-16T08:17:28.340Z,9.28
2019-02-16T08:19:59.223Z,7.30
2019-02-16T08:22:30.059Z,4.78
2019-02-16T08:25:00.890Z,5.45
2019-02-16T08:27:43.769Z,6.15
2019-02-16T08:30:17.811Z,5.00
2019-02-16T08:32:51.635Z,4.95
2019-02-16T08:35:31.777Z,5.10
2019-02-16T08:38:08.603Z,6.58
2019-02-16T08:40:42.695Z,6.85
2019-02-16T08:43:29.768Z,4.15
2019-02-16T08:46:06.408Z,3.90
2019-02-16T08:48:37.258Z,4.70
2019-02-16T08:51:08.205Z,7.53
2019-02-16T08:53:49.543Z,4.72
2019-02-16T08:56:30.182Z,5.47
2019-02-16T08:59:03.751Z,5.65
2019-02-16T09:01:49.824Z,5.50
2019-02-16T09:04:29.704Z,6.17
2019-02-16T09:07:10.350Z,3.80
2019-02-16T09:09:41.247Z,5.00
2019-02-16T09:12:21.112Z,5.28
2019-02-16T09:14:52.002Z,6.17
2019-02-16T09:17:38.170Z,3.45
2019-02-16T09:20:14.739Z,5.45
2019-02-16T09:22:45.656Z,7.33
2019-02-16T09:25:16.495Z,4.45
2019-02-16T09:27:47.584Z,5.37
2019-02-16T09:30:33.496Z,6.25
2019-02-16T09:33:04.399Z,4.45
2019-02-16T09:35:37.836Z,7.47
2019-02-16T09:38:17.544Z,3.77
2019-02-16T09:40:51.798Z,4.22
2019-02-16T09:43:39.391Z,4.53
2019-02-16T09:46:10.601Z,4.86
2019-02-16T09:48:57.633Z,5.83
2019-02-16T09:51:40.220Z,5.80
2019-02-16T09:54:11.141Z,6.40
2019-02-16T09:56:48.470Z,5.78
2019-02-16T09:59:19.408Z,5.28
2019-02-16T10:02:02.522Z,3.95
2019-02-16T10:04:36.723Z,7.08
2019-02-16T10:07:07.626Z,7.78
2019-02-16T10:09:38.522Z,4.92
2019-02-16T10:12:12.097Z,5.12
2019-02-16T10:14:48.896Z,6.87
2019-02-16T10:17:28.816Z,4.57
2019-02-16T10:19:59.651Z,9.23
2019-02-16T10:22:36.560Z,6.85
2019-02-16T10:25:12.894Z,5.50
2019-02-16T10:27:43.803Z,7.80
2019-02-16T10:30:14.719Z,6.33
2019-02-16T10:32:48.619Z,5.37
2019-02-16T10:35:19.515Z,6.70
2019-02-16T10:37:51.418Z,5.50
2019-02-16T10:40:28.186Z,6.58
2019-02-16T10:43:16.502Z,5.50
2019-02-16T10:45:57.059Z,5.72
2019-02-16T10:48:28.969Z,6.22
2019-02-16T10:51:09.283Z,6.17
2019-02-16T10:53:40.594Z,5.70
2019-02-16T10:56:11.489Z,6.72
2019-02-16T10:58:48.414Z,5.85
2019-02-16T11:01:19.353Z,7.62
2019-02-16T11:03:54.143Z,5.40
2019-02-16T11:06:24.984Z,8.45
2019-02-16T11:09:12.318Z,8.38
2019-02-16T11:11:51.795Z,6.85
2019-02-16T11:14:25.397Z,8.60
2019-02-16T11:16:59.907Z,5.40
2019-02-16T11:19:40.012Z,7.22
2019-02-16T11:22:10.888Z,6.65
2019-02-16T11:24:58.476Z,5.83
2019-02-16T11:27:40.333Z,4.90
2019-02-16T11:30:11.614Z,6.50
2019-02-16T11:32:46.859Z,7.30
2019-02-16T11:35:20.719Z,7.33
2019-02-16T11:37:57.420Z,6.17
2019-02-16T11:40:28.357Z,5.58
2019-02-16T11:43:02.012Z,8.70
2019-02-16T11:45:49.153Z,7.30
2019-02-16T11:48:20.451Z,7.87
2019-02-16T11:50:51.360Z,6.03
2019-02-16T11:53:31.577Z,6.22
2019-02-16T11:56:02.514Z,5.80
2019-02-16T11:58:33.527Z,7.12
2019-02-16T12:01:13.876Z,8.28
2019-02-16T12:03:47.780Z,11.33
2019-02-16T12:06:36.752Z,9.13
2019-02-16T12:09:16.861Z,9.15
2019-02-16T12:11:50.745Z,6.80
2019-02-16T12:14:39.621Z,6.45
2019-02-16T12:17:13.156Z,6.08
2019-02-16T12:19:46.670Z,5.40
2019-02-16T12:22:17.647Z,6.20
2019-02-16T12:25:04.781Z,6.85
2019-02-16T12:27:25.564Z,7.60
2019-02-16T12:29:56.485Z,7.12
2019-02-16T12:32:30.477Z,10.58
2019-02-16T12:35:04.233Z,7.35
2019-02-16T12:37:37.873Z,6.65
2019-02-16T12:40:24.740Z,6.60
2019-02-16T12:43:13.885Z,6.03
2019-02-16T12:45:56.341Z,6.87
2019-02-16T12:48:27.244Z,6.12
2019-02-16T12:51:14.764Z,8.98
2019-02-16T12:53:45.614Z,6.97
2019-02-16T12:56:18.960Z,6.62
2019-02-16T12:58:49.900Z,5.95
2019-02-16T13:01:20.748Z,6.90
2019-02-16T13:04:03.902Z,6.30
2019-02-16T13:06:53.177Z,7.93
2019-02-16T13:09:24.048Z,7.08
2019-02-16T13:12:10.889Z,7.55
2019-02-16T13:14:41.762Z,6.87
2019-02-16T13:17:18.655Z,7.95
2019-02-16T13:19:50.462Z,8.30
2019-02-16T13:22:21.363Z,7.05
2019-02-16T13:25:04.426Z,5.42
2019-02-16T13:27:41.251Z,8.98
2019-02-16T13:30:12.198Z,8.18
2019-02-16T13:32:52.031Z,7.78
2019-02-16T13:35:29.087Z,6.33
2019-02-16T13:37:59.935Z,7.22
2019-02-16T13:40:30.994Z,7.00
2019-02-16T13:43:01.845Z,8.10
2019-02-16T13:45:41.957Z,8.73
2019-02-16T13:48:12.896Z,8.75
2019-02-16T13:50:49.723Z,8.23
2019-02-16T13:53:23.346Z,7.65
2019-02-16T13:55:57.047Z,9.03
2019-02-16T13:58:27.948Z,14.43
2019-02-16T14:00:58.817Z,8.40
2019-02-16T14:03:38.750Z,8.35
2019-02-16T14:06:18.616Z,8.95
2019-02-16T14:08:55.385Z,9.20
2019-02-16T14:11:35.262Z,6.92
2019-02-16T14:14:12.034Z,8.13
2019-02-16T14:16:55.138Z,9.48
2019-02-16T14:19:24.521Z,7.85
2019-02-16T14:21:53.961Z,9.85
2019-02-16T14:24:31.211Z,6.65
2019-02-16T14:27:00.418Z,7.15
2019-02-16T14:29:29.724Z,6.55
2019-02-16T14:31:58.989Z,8.45
2019-02-16T14:34:28.256Z,7.75
2019-02-16T14:36:57.631Z,8.75
2019-02-16T14:39:31.395Z,10.18
2019-02-16T14:42:00.730Z,8.95
2019-02-16T14:44:31.073Z,7.87
2019-02-16T14:47:00.280Z,8.48
2019-02-16T14:49:30.592Z,7.72
2019-02-16T14:52:00.953Z,7.97
2019-02-16T14:54:30.372Z,8.50
2019-02-16T14:56:59.594Z,7.67
2019-02-16T14:59:29.206Z,8.88
2019-02-16T15:01:58.480Z,7.17
2019-02-16T15:04:27.724Z,9.18
2019-02-16T15:06:57.132Z,8.18
2019-02-16T15:09:26.465Z,6.92
2019-02-16T15:11:55.911Z,8.80
2019-02-16T15:14:25.295Z,8.30
2019-02-16T15:16:54.517Z,6.90
2019-02-16T15:19:25.652Z,8.33
2019-02-16T15:21:54.737Z,8.53
2019-02-16T15:24:25.151Z,8.20
2019-02-16T15:26:54.436Z,7.72
2019-02-16T15:29:23.720Z,7.87
2019-02-16T15:31:53.029Z,12.50
2019-02-16T15:34:22.321Z,11.88
2019-02-16T15:36:51.544Z,8.58
2019-02-16T15:39:20.840Z,8.38
2019-02-16T15:41:50.089Z,12.43
2019-02-16T15:44:19.448Z,11.50
2019-02-16T15:46:54.624Z,9.33
2019-02-16T15:49:23.815Z,9.00
2019-02-16T15:51:53.486Z,9.43
2019-02-16T15:54:22.687Z,8.83
2019-02-16T15:56:51.918Z,7.33
2019-02-16T15:59:21.470Z,8.93
2019-02-16T16:01:50.760Z,12.03
2019-02-16T16:04:21.546Z,9.65
2019-02-16T16:06:51.054Z,9.98
2019-02-16T16:09:22.218Z,9.78
2019-02-16T16:11:53.181Z,12.28
2019-02-16T16:14:27.135Z,9.73
2019-02-16T16:17:15.945Z,12.82
2019-02-16T16:20:03.367Z,10.43
2019-02-16T16:22:43.142Z,9.50
2019-02-16T16:25:30.482Z,17.23
2019-02-16T16:28:16.632Z,12.20
2019-02-16T16:30:47.625Z,10.93
2019-02-16T16:33:21.442Z,11.70
2019-02-16T16:35:52.420Z,10.88
2019-02-16T16:38:25.958Z,13.40
2019-02-16T16:40:59.323Z,10.85
2019-02-16T16:43:42.117Z,11.38
2019-02-16T16:46:19.112Z,11.40
2019-02-16T16:48:49.995Z,11.68
2019-02-16T16:51:23.822Z,9.90
2019-02-16T16:53:54.832Z,9.73
2019-02-16T16:56:34.537Z,13.60
2019-02-16T16:59:22.153Z,10.75
2019-02-16T17:01:53.165Z,10.93
2019-02-16T17:04:26.894Z,11.12
2019-02-16T17:07:14.006Z,12.65
2019-02-16T17:09:50.940Z,11.80
2019-02-16T17:12:34.610Z,12.93
2019-02-16T17:15:03.189Z,14.58
2019-02-16T17:17:43.265Z,13.08
2019-02-16T17:20:19.959Z,13.40
2019-02-16T17:22:59.906Z,13.80
2019-02-16T17:25:33.665Z,16.30
2019-02-16T17:28:22.669Z,14.95
2019-02-16T17:31:02.218Z,14.18
2019-02-16T17:33:48.339Z,13.08
2019-02-16T17:36:28.819Z,12.78
2019-02-16T17:39:08.779Z,15.97
2019-02-16T17:41:51.393Z,13.15
2019-02-16T17:44:31.784Z,13.38
2019-02-16T17:47:18.792Z,13.18
2019-02-16T17:49:49.769Z,15.08
2019-02-16T17:52:32.751Z,13.78
2019-02-16T17:55:12.308Z,13.93
2019-02-16T17:57:43.293Z,13.30
2019-02-16T18:00:14.660Z,12.33
2019-02-16T18:02:54.411Z,13.95
2019-02-16T18:05:28.302Z,13.15
2019-02-16T18:08:02.284Z,17.60
2019-02-16T18:10:43.642Z,16.60
2019-02-16T18:13:14.772Z,15.72
2019-02-16T18:15:48.469Z,13.83
2019-02-16T18:18:19.449Z,11.90
2019-02-16T18:20:59.227Z,12.58
2019-02-16T18:23:30.295Z,13.65
2019-02-16T18:26:04.137Z,14.15
2019-02-16T18:28:45.508Z,22.70
2019-02-16T18:31:19.348Z,16.65
2019-02-16T18:33:52.883Z,14.50
2019-02-16T18:36:26.268Z,13.50
2019-02-16T18:38:59.906Z,15.35
2019-02-16T18:41:30.893Z,15.32
2019-02-16T18:44:17.993Z,12.30
2019-02-16T18:46:57.882Z,14.70
2019-02-16T18:49:37.858Z,13.97
2019-02-16T18:52:11.327Z,13.85
2019-02-16T18:54:45.229Z,15.50
2019-02-16T18:57:28.503Z,16.65
2019-02-16T19:00:05.471Z,15.20
2019-02-16T19:02:48.691Z,14.33
2019-02-16T19:05:28.642Z,16.52
2019-02-16T19:08:02.317Z,14.85
2019-02-16T19:10:33.335Z,15.35
2019-02-16T19:13:04.203Z,13.55
2019-02-16T19:15:40.903Z,14.43
2019-02-16T19:18:11.757Z,18.17
2019-02-16T19:20:42.742Z,19.37
2019-02-16T19:23:32.217Z,16.50
2019-02-16T19:26:02.415Z,13.88
2019-02-16T19:28:33.290Z,15.50
2019-02-16T19:31:04.332Z,19.52
2019-02-16T19:33:51.441Z,19.80
2019-02-16T19:36:22.416Z,18.87
2019-02-16T19:38:53.285Z,19.75
2019-02-16T19:41:36.050Z,18.65
2019-02-16T19:44:06.909Z,16.45
2019-02-16T19:46:37.929Z,19.50
2019-02-16T19:49:26.284Z,25.25
2019-02-16T19:52:00.168Z,22.02
2019-02-16T19:54:33.998Z,23.73
2019-02-16T19:57:14.602Z,29.18
2019-02-16T20:00:02.606Z,25.02
2019-02-16T20:02:34.826Z,32.48
2019-02-16T20:05:08.828Z,31.35
2019-02-16T20:07:48.938Z,29.25
2019-02-16T20:10:28.499Z,31.53
2019-02-16T20:13:08.699Z,26.65
2019-02-16T20:15:48.761Z,28.85
2019-02-16T20:18:35.834Z,31.65
2019-02-16T20:21:06.794Z,33.70
2019-02-16T20:23:49.558Z,30.92
2019-02-16T20:26:36.626Z,27.22
2019-02-16T20:29:08.022Z,27.82
2019-02-16T20:31:38.901Z,34.30
2019-02-16T20:34:10.005Z,30.57
2019-02-16T20:36:43.700Z,24.45
2019-02-16T20:39:26.546Z,24.25
2019-02-16T20:42:13.128Z,23.77
2019-02-16T20:44:47.046Z,23.92
2019-02-16T20:47:23.762Z,24.82
2019-02-16T20:49:57.527Z,23.50
2019-02-16T20:52:34.512Z,30.55
2019-02-16T20:55:06.004Z,30.70
2019-02-16T20:57:47.359Z,30.05
2019-02-16T21:00:39.121Z,30.02
2019-02-16T21:03:12.976Z,33.65
2019-02-16T21:05:43.993Z,39.53
2019-02-16T21:08:31.461Z,33.43
2019-02-16T21:11:08.014Z,28.12
2019-02-16T21:13:44.763Z,30.45
2019-02-16T21:16:15.567Z,29.82
2019-02-16T21:18:49.640Z,33.35
2019-02-16T21:21:20.981Z,31.05
2019-02-16T21:23:58.195Z,29.48
2019-02-16T21:26:36.987Z,24.92
2019-02-16T21:29:14.948Z,30.20
2019-02-16T21:31:48.791Z,25.93
2019-02-16T21:34:25.956Z,26.93
2019-02-16T21:36:59.695Z,26.10
2019-02-16T21:39:34.983Z,30.32
2019-02-16T21:42:05.981Z,28.95
2019-02-16T21:44:46.101Z,31.65
2019-02-16T21:47:17.060Z,27.87
2019-02-16T21:49:50.408Z,28.60
2019-02-16T21:52:27.358Z,25.80
2019-02-16T21:55:14.795Z,22.40
2019-02-16T21:57:45.727Z,24.27
2019-02-16T22:00:34.882Z,24.63
2019-02-16T22:03:11.332Z,26.33
2019-02-16T22:05:45.223Z,24.55
2019-02-16T22:08:19.026Z,26.20
2019-02-16T22:10:56.682Z,27.00
2019-02-16T22:13:25.877Z,26.30
2019-02-16T22:15:55.333Z,24.60
2019-02-16T22:18:24.788Z,26.35
2019-02-16T22:20:54.222Z,24.12
2019-02-16T22:23:23.699Z,24.65
2019-02-16T22:25:53.556Z,23.57
2019-02-16T22:28:30.635Z,22.15
2019-02-16T22:30:54.132Z,23.80
2019-02-16T22:33:23.539Z,23.77
2019-02-16T22:35:53.050Z,23.95
2019-02-16T22:38:22.504Z,25.02
2019-02-16T22:40:51.931Z,27.00
2019-02-16T22:43:21.419Z,22.90
2019-02-16T22:45:50.847Z,29.12
2019-02-16T22:48:22.237Z,22.93
2019-02-16T22:50:51.692Z,27.67
2019-02-16T22:53:21.170Z,27.60
2019-02-16T22:55:50.716Z,25.62
2019-02-16T22:58:28.617Z,26.02
2019-02-16T23:00:53.093Z,26.45
2019-02-16T23:03:23.489Z,26.85
2019-02-16T23:05:53.248Z,28.27
2019-02-16T23:08:22.764Z,26.37
2019-02-16T23:10:52.176Z,25.82
2019-02-16T23:13:21.712Z,27.40
2019-02-16T23:15:51.122Z,28.47
2019-02-16T23:18:20.733Z,28.30
2019-02-16T23:20:50.256Z,29.27
2019-02-16T23:23:19.669Z,28.95
2019-02-16T23:25:49.135Z,28.35
2019-02-16T23:28:18.754Z,29.40
2019-02-16T23:30:48.218Z,28.62
2019-02-16T23:33:18.822Z,30.05
2019-02-16T23:35:48.323Z,28.23
2019-02-16T23:38:17.754Z,29.63
2019-02-16T23:40:47.232Z,28.98
2019-02-16T23:43:16.770Z,31.25
2019-02-16T23:45:46.909Z,30.70
2019-02-16T23:48:16.452Z,31.00
2019-02-16T23:50:45.991Z,31.37
2019-02-16T23:53:15.465Z,33.48
2019-02-16T23:55:44.901Z,29.65
2019-02-16T23:58:14.326Z,32.50
